Time;durP1;ratioP1;P1;durP2;ratioP2;P2;SDS_P1;SDS_P2;PMS_P1;PMS_P2;Temp;Humidity;BMP_temperature;BMP_pressure;BME280_temperature;BME280_humidity;BME280_pressure;Samples;Min_cycle;Max_cycle;Signal;HPM_P1;HPM_P2
2023/03/19 00:02:18;;;;;;;70.20;17.17;;;12.00;98.80;;;;;;5029871;28;20572;-85
2023/03/19 00:04:45;;;;;;;72.20;17.50;;;11.90;99.90;;;;;;5035220;28;20169;-87
2023/03/19 00:07:12;;;;;;;70.65;17.23;;;11.90;99.90;;;;;;5035979;28;20195;-86
2023/03/19 00:09:37;;;;;;;70.25;17.13;;;11.90;99.90;;;;;;5033214;28;20173;-86
2023/03/19 00:12:03;;;;;;;71.50;17.23;;;11.90;99.90;;;;;;5031198;28;20256;-86
2023/03/19 00:14:29;;;;;;;73.28;18.08;;;11.90;99.90;;;;;;5038360;28;20250;-86
2023/03/19 00:16:55;;;;;;;73.50;17.07;;;11.90;99.90;;;;;;5030751;28;20616;-86
2023/03/19 00:19:21;;;;;;;73.93;16.57;;;11.80;99.90;;;;;;5037945;28;20417;-86
2023/03/19 00:21:46;;;;;;;72.03;20.23;;;11.80;99.90;;;;;;5039470;28;20415;-85
2023/03/19 00:24:12;;;;;;;72.57;16.03;;;11.90;99.90;;;;;;5032650;28;20602;-86
2023/03/19 00:26:38;;;;;;;73.00;17.60;;;11.80;99.90;;;;;;5040298;28;20188;-86
2023/03/19 00:29:04;;;;;;;69.87;15.50;;;11.80;99.90;;;;;;5039759;28;20488;-85
2023/03/19 00:31:30;;;;;;;73.00;16.45;;;11.70;97.70;;;;;;5039902;28;20410;-85
2023/03/19 00:33:57;;;;;;;71.25;16.58;;;11.70;99.80;;;;;;5030920;28;20181;-86
2023/03/19 00:36:24;;;;;;;70.72;13.75;;;11.70;99.90;;;;;;5022557;28;20283;-87
2023/03/19 00:38:50;;;;;;;73.25;15.82;;;11.60;99.90;;;;;;5040388;28;20169;-86
2023/03/19 00:41:17;;;;;;;71.10;14.60;;;11.60;99.90;;;;;;5033961;28;20173;-87
2023/03/19 00:43:44;;;;;;;71.50;14.98;;;11.50;99.90;;;;;;5039483;28;20196;-86
2023/03/19 00:46:10;;;;;;;76.72;15.50;;;11.50;99.90;;;;;;5033128;28;20164;-86
2023/03/19 00:48:35;;;;;;;72.13;16.47;;;11.60;99.90;;;;;;5038872;28;20648;-86
2023/03/19 00:51:07;;;;;;;70.37;13.10;;;11.50;99.90;;;;;;5040804;28;20454;-86
2023/03/19 00:53:35;;;;;;;72.70;11.90;;;11.50;99.90;;;;;;5040091;28;20562;-86
2023/03/19 00:56:01;;;;;;;71.38;12.48;;;11.40;99.90;;;;;;5039489;28;20172;-86
2023/03/19 00:58:27;;;;;;;70.10;13.17;;;11.40;99.90;;;;;;5038807;28;20173;-85
2023/03/19 01:00:53;;;;;;;71.27;14.53;;;11.40;99.90;;;;;;5036579;28;20174;-86
2023/03/19 01:03:19;;;;;;;71.32;13.90;;;11.30;99.90;;;;;;5032473;28;20193;-86
2023/03/19 01:05:47;;;;;;;68.40;10.55;;;11.20;99.90;;;;;;5038916;28;20246;-85
2023/03/19 01:08:14;;;;;;;70.22;12.45;;;11.10;99.90;;;;;;5039016;28;20193;-86
2023/03/19 01:10:40;;;;;;;68.82;11.38;;;11.10;99.90;;;;;;5035835;28;20256;-86
2023/03/19 01:13:06;;;;;;;71.05;11.30;;;11.00;99.90;;;;;;5038379;28;20177;-85
2023/03/19 01:15:38;;;;;;;68.82;9.90;;;11.00;99.90;;;;;;5038266;28;20219;-85
2023/03/19 01:18:04;;;;;;;71.25;9.23;;;11.00;99.90;;;;;;5031248;28;20164;-86
2023/03/19 01:20:31;;;;;;;67.38;9.25;;;11.00;99.90;;;;;;5038590;28;20564;-86
2023/03/19 01:22:57;;;;;;;69.72;10.00;;;10.90;99.90;;;;;;5028763;28;20193;-85
2023/03/19 01:25:23;;;;;;;68.10;10.93;;;10.90;99.90;;;;;;5037693;28;20588;-86
2023/03/19 01:27:50;;;;;;;72.67;9.63;;;10.90;99.90;;;;;;5038061;28;20185;-85
2023/03/19 01:30:16;;;;;;;68.72;10.45;;;10.80;99.90;;;;;;5032113;28;20470;-86
2023/03/19 01:32:42;;;;;;;68.40;9.67;;;10.80;99.90;;;;;;5037330;28;20707;-85
2023/03/19 01:35:11;;;;;;;68.80;11.10;;;10.80;99.90;;;;;;5037943;28;20396;-86
2023/03/19 01:37:37;;;;;;;69.05;10.30;;;10.70;99.90;;;;;;5035292;28;20204;-85
2023/03/19 01:40:04;;;;;;;71.20;9.87;;;10.60;99.90;;;;;;5037918;28;20223;-86
2023/03/19 01:42:31;;;;;;;69.85;8.93;;;10.60;99.90;;;;;;5038645;28;20430;-85
2023/03/19 01:44:58;;;;;;;73.75;11.30;;;10.50;99.90;;;;;;5028691;28;20189;-85
2023/03/19 01:47:41;;;;;;;77.57;10.20;;;10.50;99.90;;;;;;5036517;28;20224;-85
2023/03/19 01:50:26;;;;;;;69.00;11.57;;;10.50;99.90;;;;;;5037839;28;20153;-86
2023/03/19 01:52:51;;;;;;;68.75;10.05;;;10.60;99.90;;;;;;5037547;28;20189;-85
2023/03/19 01:55:17;;;;;;;68.20;9.03;;;10.50;99.90;;;;;;5036898;28;20208;-85
2023/03/19 01:57:43;;;;;;;71.30;8.82;;;10.50;99.90;;;;;;5037429;28;20219;-85
2023/03/19 02:00:11;;;;;;;68.70;9.73;;;10.60;99.90;;;;;;5038535;28;20617;-85
2023/03/19 02:02:38;;;;;;;74.45;9.60;;;10.50;99.90;;;;;;5034343;28;20271;-85
2023/03/19 02:05:10;;;;;;;73.22;9.50;;;10.50;99.90;;;;;;5038726;28;20555;-85
2023/03/19 02:07:38;;;;;;;72.15;9.45;;;10.60;99.90;;;;;;5039259;28;20189;-85
2023/03/19 02:10:11;;;;;;;73.95;9.27;;;10.60;99.90;;;;;;5038885;28;20166;-85
2023/03/19 02:12:37;;;;;;;70.55;10.07;;;10.50;99.90;;;;;;5035044;28;20251;-85
2023/03/19 02:15:04;;;;;;;69.50;9.90;;;10.60;99.90;;;;;;5030640;28;20169;-86
2023/03/19 02:17:31;;;;;;;69.97;12.07;;;10.60;99.90;;;;;;5037671;28;20509;-86
2023/03/19 02:20:07;;;;;;;70.35;10.43;;;10.50;99.90;;;;;;5038613;28;20633;-86
2023/03/19 02:22:34;;;;;;;69.82;10.80;;;10.60;99.90;;;;;;5033920;28;20211;-86
2023/03/19 02:25:17;;;;;;;70.70;12.13;;;10.60;99.90;;;;;;5029745;28;20193;-86
2023/03/19 02:27:46;;;;;;;75.40;11.27;;;10.60;99.90;;;;;;5037629;28;20537;-86
2023/03/19 02:30:31;;;;;;;70.95;12.75;;;10.50;99.90;;;;;;5032122;28;20211;-85
2023/03/19 02:32:56;;;;;;;69.28;10.70;;;10.60;99.90;;;;;;5037416;28;20189;-86
2023/03/19 02:35:22;;;;;;;71.10;12.13;;;10.60;99.90;;;;;;5038329;28;20244;-85
2023/03/19 02:37:48;;;;;;;68.73;10.80;;;10.70;99.90;;;;;;5036255;28;20180;-86
2023/03/19 02:40:28;;;;;;;69.30;12.77;;;10.70;99.90;;;;;;5032164;28;20180;-86
2023/03/19 02:42:54;;;;;;;73.13;12.70;;;10.70;99.90;;;;;;5037038;28;20188;-85
2023/03/19 02:45:20;;;;;;;68.00;11.97;;;10.70;99.90;;;;;;5036237;28;20242;-86
2023/03/19 02:47:45;;;;;;;70.22;12.27;;;10.70;99.90;;;;;;5035678;28;20463;-86
2023/03/19 02:50:11;;;;;;;71.40;13.40;;;10.70;99.90;;;;;;5030201;28;20170;-86
2023/03/19 02:52:37;;;;;;;69.97;13.70;;;10.70;99.90;;;;;;5036010;28;20613;-86
2023/03/19 02:55:03;;;;;;;69.27;14.97;;;10.70;99.90;;;;;;5037205;28;20196;-86
2023/03/19 02:57:29;;;;;;;69.55;12.35;;;10.70;99.90;;;;;;5037551;28;20187;-86
2023/03/19 02:59:55;;;;;;;69.10;14.20;;;10.70;99.90;;;;;;5038117;28;20170;-86
2023/03/19 03:02:20;;;;;;;71.47;14.43;;;10.70;99.90;;;;;;5032685;28;20503;-85
2023/03/19 03:04:46;;;;;;;69.97;13.73;;;10.60;99.90;;;;;;5037352;28;20264;-85
2023/03/19 03:07:12;;;;;;;69.40;14.70;;;10.70;99.90;;;;;;5030105;28;20196;-86
2023/03/19 03:09:38;;;;;;;73.20;14.47;;;10.70;99.90;;;;;;5037201;28;20241;-85
2023/03/19 03:12:04;;;;;;;69.60;13.20;;;10.70;99.90;;;;;;5028803;28;20276;-86
2023/03/19 03:14:30;;;;;;;72.53;13.52;;;10.80;99.90;;;;;;5035921;28;20169;-86
2023/03/19 03:16:57;;;;;;;69.57;14.17;;;10.80;99.90;;;;;;5028319;28;20593;-86
2023/03/19 03:19:23;;;;;;;70.55;13.45;;;10.80;99.90;;;;;;5035762;28;20222;-86
2023/03/19 03:21:49;;;;;;;70.27;13.27;;;10.80;99.90;;;;;;5036798;28;20640;-86
2023/03/19 03:24:14;;;;;;;70.77;13.40;;;10.80;99.90;;;;;;5030742;28;20408;-85
2023/03/19 03:26:41;;;;;;;68.90;12.67;;;10.80;99.90;;;;;;5035318;28;20193;-86
2023/03/19 03:29:07;;;;;;;68.70;12.85;;;10.80;99.90;;;;;;5029753;28;20172;-85
2023/03/19 03:31:33;;;;;;;70.10;13.45;;;10.80;99.90;;;;;;5037178;28;20172;-86
2023/03/19 03:34:00;;;;;;;69.93;14.98;;;10.80;99.90;;;;;;5028505;28;20553;-86
2023/03/19 03:36:27;;;;;;;70.45;14.48;;;10.80;99.90;;;;;;5035570;28;20678;-86
2023/03/19 03:38:53;;;;;;;70.50;14.70;;;10.80;99.90;;;;;;5035340;28;20176;-86
2023/03/19 03:41:20;;;;;;;69.80;13.77;;;10.80;99.90;;;;;;5036558;28;20170;-86
2023/03/19 03:43:45;;;;;;;70.95;13.70;;;10.80;99.90;;;;;;5036466;28;20185;-86
2023/03/19 03:46:12;;;;;;;76.50;14.60;;;10.90;99.90;;;;;;5032194;28;20175;-85
2023/03/19 03:48:38;;;;;;;70.22;13.30;;;10.90;99.90;;;;;;5039888;28;20482;-85
2023/03/19 03:51:04;;;;;;;73.85;13.18;;;10.90;99.90;;;;;;5032602;28;20633;-87
2023/03/19 03:53:30;;;;;;;69.60;12.77;;;10.80;99.90;;;;;;5039132;28;20212;-85
2023/03/19 03:55:55;;;;;;;68.00;11.80;;;10.90;99.90;;;;;;5040796;28;20499;-85
2023/03/19 03:58:22;;;;;;;73.07;13.97;;;10.90;99.90;;;;;;5035326;28;20184;-85
2023/03/19 04:00:48;;;;;;;66.72;11.13;;;11.00;99.90;;;;;;5041003;28;20299;-85
2023/03/19 04:03:14;;;;;;;67.50;11.50;;;11.00;99.90;;;;;;5034098;28;20217;-86
2023/03/19 04:05:40;;;;;;;67.77;11.90;;;11.00;99.90;;;;;;5039821;28;20415;-86
2023/03/19 04:08:06;;;;;;;67.33;9.00;;;11.10;99.90;;;;;;5040585;28;20181;-86
2023/03/19 04:10:34;;;;;;;69.10;7.50;;;11.10;99.90;;;;;;5041275;28;20430;-85
2023/03/19 04:13:00;;;;;;;77.05;10.85;;;11.10;99.90;;;;;;5040683;28;20175;-85
2023/03/19 04:15:26;;;;;;;67.27;8.70;;;11.00;99.90;;;;;;5035380;28;20192;-86
2023/03/19 04:17:51;;;;;;;66.30;9.20;;;11.00;99.90;;;;;;5041414;28;20422;-85
2023/03/19 04:20:17;;;;;;;70.10;8.63;;;11.00;99.90;;;;;;5035135;28;20412;-86
2023/03/19 04:22:44;;;;;;;66.70;9.10;;;10.90;99.90;;;;;;5041253;28;20225;-86
2023/03/19 04:25:10;;;;;;;68.75;10.32;;;10.80;99.90;;;;;;5034064;28;20172;-86
2023/03/19 04:27:36;;;;;;;70.82;11.25;;;10.80;99.90;;;;;;5040994;28;20213;-85
2023/03/19 04:30:02;;;;;;;68.00;13.17;;;10.70;99.90;;;;;;5032645;28;20173;-85
2023/03/19 04:32:28;;;;;;;68.05;13.15;;;10.70;99.90;;;;;;5040645;28;20189;-86
2023/03/19 04:34:54;;;;;;;70.00;12.40;;;10.70;99.90;;;;;;5040779;28;20609;-87
2023/03/19 04:37:20;;;;;;;67.17;11.20;;;10.80;99.90;;;;;;5040129;28;20169;-86
2023/03/19 04:39:45;;;;;;;68.47;11.57;;;10.80;99.90;;;;;;5037441;28;20170;-86
2023/03/19 04:42:11;;;;;;;68.60;12.20;;;10.80;99.90;;;;;;5040405;28;20227;-86
2023/03/19 04:44:37;;;;;;;69.00;12.80;;;10.80;99.90;;;;;;5036595;28;20212;-86
2023/03/19 04:47:04;;;;;;;69.00;14.03;;;10.90;99.90;;;;;;5040668;28;20443;-86
2023/03/19 04:49:32;;;;;;;68.28;12.73;;;10.90;99.90;;;;;;5040148;28;20254;-86
2023/03/19 04:51:58;;;;;;;70.22;12.23;;;11.00;99.90;;;;;;5040085;28;20287;-85
2023/03/19 04:54:24;;;;;;;66.17;9.90;;;11.00;99.90;;;;;;5034152;28;20200;-85
2023/03/19 04:56:50;;;;;;;68.82;11.18;;;11.00;99.90;;;;;;5039015;28;20173;-86
2023/03/19 04:59:16;;;;;;;68.03;10.65;;;11.00;99.90;;;;;;5040061;28;20173;-86
2023/03/19 05:01:42;;;;;;;69.97;11.63;;;11.00;99.90;;;;;;5036807;28;20188;-85
2023/03/19 05:04:08;;;;;;;66.07;8.90;;;11.00;99.90;;;;;;5039103;28;20255;-86
2023/03/19 05:06:35;;;;;;;69.30;10.63;;;11.00;99.90;;;;;;5036035;28;20691;-86
2023/03/19 05:09:01;;;;;;;68.25;11.82;;;10.90;99.90;;;;;;5031105;28;20173;-85
2023/03/19 05:11:26;;;;;;;68.32;10.88;;;10.90;99.90;;;;;;5040293;28;20172;-85
2023/03/19 05:13:52;;;;;;;67.07;10.27;;;10.90;99.90;;;;;;5038849;28;20189;-86
2023/03/19 05:16:18;;;;;;;68.97;12.80;;;10.90;99.90;;;;;;5039943;28;20161;-85
2023/03/19 05:18:45;;;;;;;66.50;9.97;;;10.90;99.90;;;;;;5037527;28;20257;-86
2023/03/19 05:21:11;;;;;;;69.95;12.32;;;10.90;99.90;;;;;;5039094;28;20659;-85
2023/03/19 05:23:38;;;;;;;68.40;10.95;;;10.90;99.90;;;;;;5035996;28;20679;-85
2023/03/19 05:26:05;;;;;;;72.40;11.95;;;10.90;99.90;;;;;;5031516;28;20189;-85
2023/03/19 05:28:32;;;;;;;67.72;12.45;;;10.80;99.90;;;;;;5039343;28;20280;-85
2023/03/19 05:31:02;;;;;;;67.32;12.32;;;10.80;99.90;;;;;;5039574;28;20180;-85
2023/03/19 05:33:27;;;;;;;67.97;12.60;;;10.70;99.90;;;;;;5039149;28;20181;-85
2023/03/19 05:35:53;;;;;;;69.07;14.30;;;10.70;99.90;;;;;;5038629;28;20161;-85
2023/03/19 05:38:19;;;;;;;70.47;12.93;;;10.70;99.90;;;;;;5039285;28;20216;-86
2023/03/19 05:40:45;;;;;;;67.27;12.53;;;10.60;99.90;;;;;;5038830;28;20193;-85
2023/03/19 05:43:10;;;;;;;67.37;13.33;;;10.60;99.90;;;;;;5031721;28;20217;-85
2023/03/19 05:45:37;;;;;;;71.97;16.27;;;10.60;99.90;;;;;;5082747;22;20221;-84
2023/03/19 05:48:04;;;;;;;67.72;12.88;;;10.60;99.90;;;;;;5036810;28;20447;-84
2023/03/19 05:50:30;;;;;;;68.90;12.98;;;10.50;99.90;;;;;;5044011;28;20172;-84
2023/03/19 05:52:56;;;;;;;69.75;13.13;;;10.50;99.90;;;;;;5042481;28;20193;-84
2023/03/19 05:55:22;;;;;;;72.63;14.73;;;10.50;99.90;;;;;;5039292;28;20178;-84
2023/03/19 05:57:48;;;;;;;73.50;14.93;;;10.50;99.90;;;;;;5044502;28;20165;-84
2023/03/19 06:00:15;;;;;;;70.17;12.97;;;10.40;99.90;;;;;;5044856;28;20172;-84
2023/03/19 06:02:41;;;;;;;68.55;12.27;;;10.50;99.90;;;;;;5044410;28;20192;-83
2023/03/19 06:05:08;;;;;;;69.05;13.40;;;10.50;99.90;;;;;;5044498;28;20162;-84
2023/03/19 06:07:34;;;;;;;69.50;12.52;;;10.50;99.90;;;;;;5037888;28;20212;-83
2023/03/19 06:10:00;;;;;;;67.60;11.33;;;10.50;99.90;;;;;;5041710;28;20160;-84
2023/03/19 06:12:26;;;;;;;67.77;12.17;;;10.50;99.90;;;;;;5044265;28;20415;-84
2023/03/19 06:14:51;;;;;;;67.67;10.80;;;10.60;99.90;;;;;;5041610;28;20404;-84
2023/03/19 06:17:17;;;;;;;69.33;13.30;;;10.60;99.90;;;;;;5035709;28;20169;-84
2023/03/19 06:19:43;;;;;;;67.03;12.00;;;10.70;99.90;;;;;;5041797;28;20670;-84
2023/03/19 06:22:09;;;;;;;67.00;10.17;;;10.70;99.90;;;;;;5041482;28;20212;-84
2023/03/19 06:24:35;;;;;;;67.18;11.80;;;10.70;99.90;;;;;;5041630;28;20567;-84
2023/03/19 06:27:01;;;;;;;68.32;13.68;;;10.70;99.90;;;;;;5041950;28;20193;-84
2023/03/19 06:29:27;;;;;;;66.85;11.45;;;10.80;99.90;;;;;;5041559;28;20173;-84
2023/03/19 06:32:00;;;;;;;68.37;13.57;;;10.80;99.90;;;;;;5050417;23;20180;-84
2023/03/19 06:34:34;;;;;;;67.72;11.68;;;10.90;99.90;;;;;;5019661;28;20586;-83
2023/03/19 06:37:14;;;;;;;68.85;10.70;;;10.90;99.90;;;;;;5036873;28;20201;-83
2023/03/19 06:39:53;;;;;;;74.93;11.35;;;10.90;99.90;;;;;;5021443;28;20178;-83
2023/03/19 06:42:33;;;;;;;67.82;11.27;;;11.00;99.90;;;;;;5020832;28;20400;-83
2023/03/19 06:45:09;;;;;;;65.85;9.63;;;11.00;99.90;;;;;;5035092;28;20232;-83
2023/03/19 06:47:40;;;;;;;67.50;12.50;;;11.00;99.90;;;;;;5019597;28;20251;-83
2023/03/19 06:50:17;;;;;;;67.70;13.23;;;11.10;99.90;;;;;;5018583;28;20653;-83
2023/03/19 06:53:01;;;;;;;69.38;13.07;;;11.10;99.90;;;;;;5034606;28;20221;-83
2023/03/19 06:55:29;;;;;;;68.97;14.38;;;11.10;99.90;;;;;;5019953;28;20165;-83
2023/03/19 06:58:11;;;;;;;69.80;12.52;;;11.10;99.90;;;;;;5020626;28;20292;-83
2023/03/19 07:00:49;;;;;;;76.85;14.95;;;11.20;99.90;;;;;;5018996;28;20177;-84
2023/03/19 07:03:18;;;;;;;68.50;13.98;;;11.20;99.90;;;;;;5036921;28;20196;-83
2023/03/19 07:05:58;;;;;;;67.10;11.32;;;11.30;99.90;;;;;;5036164;28;20644;-83
2023/03/19 07:08:45;;;;;;;67.65;10.80;;;11.40;99.90;;;;;;5034450;28;20204;-83
2023/03/19 07:11:12;;;;;;;66.78;10.77;;;11.40;99.90;;;;;;5019912;28;20166;-83
2023/03/19 07:13:44;;;;;;;66.53;11.13;;;11.30;99.90;;;;;;5020411;28;20209;-83
2023/03/19 07:16:49;;;;;;;67.10;11.80;;;11.40;99.90;;;;;;5021462;28;20177;-83
2023/03/19 07:19:27;;;;;;;67.38;12.88;;;11.40;99.90;;;;;;5036358;28;20305;-83
2023/03/19 07:21:54;;;;;;;73.47;12.02;;;11.30;99.90;;;;;;5038101;28;20172;-83
2023/03/19 07:24:27;;;;;;;68.60;13.32;;;11.30;99.90;;;;;;5024006;28;20174;-83
2023/03/19 07:26:58;;;;;;;68.82;11.25;;;11.30;99.90;;;;;;5023060;28;20229;-83
2023/03/19 07:29:50;;;;;;;67.07;12.57;;;11.30;99.90;;;;;;5038387;28;20185;-83
2023/03/19 07:32:25;;;;;;;66.93;11.35;;;11.20;99.90;;;;;;5022998;28;20228;-83
2023/03/19 07:34:56;;;;;;;68.10;12.82;;;11.20;99.90;;;;;;5039431;28;20640;-83
2023/03/19 07:38:02;;;;;;;69.22;14.00;;;11.30;99.90;;;;;;5024040;28;20522;-83
2023/03/19 07:40:33;;;;;;;67.10;12.30;;;11.40;99.90;;;;;;5022946;28;20278;-83
2023/03/19 07:43:02;;;;;;;68.95;13.02;;;11.40;99.90;;;;;;5022397;28;20190;-83
2023/03/19 07:45:33;;;;;;;68.18;11.43;;;11.40;99.90;;;;;;5038448;28;20177;-83
2023/03/19 07:48:05;;;;;;;68.40;13.85;;;11.50;99.90;;;;;;5023780;28;20276;-83
2023/03/19 07:51:03;;;;;;;69.75;12.85;;;11.50;99.90;;;;;;5024141;28;20162;-83
2023/03/19 07:53:49;;;;;;;68.53;14.05;;;11.60;99.90;;;;;;5022885;28;20193;-83
2023/03/19 07:56:26;;;;;;;68.40;13.52;;;11.60;99.90;;;;;;5023033;28;20158;-83
2023/03/19 07:59:21;;;;;;;68.28;13.85;;;11.70;99.90;;;;;;5022530;28;20681;-83
2023/03/19 08:01:56;;;;;;;69.47;14.00;;;11.70;99.90;;;;;;5024348;28;20166;-83
2023/03/19 08:04:54;;;;;;;;;;;;;;;;;;;;;
2023/03/19 08:07:49;;;;;;;69.45;13.02;;;11.80;99.90;;;;;;5015358;28;20309;-83
2023/03/19 08:16:48;;;;;;;;;;;;;;;;;;;;;
2023/03/19 08:19:21;;;;;;;71.15;15.27;;;12.30;99.90;;;;;;5023493;28;20249;-83
2023/03/19 08:21:58;;;;;;;71.95;14.43;;;12.40;99.90;;;;;;5038216;28;20182;-83
2023/03/19 08:24:38;;;;;;;67.97;13.27;;;12.60;99.90;;;;;;5037187;28;20158;-83
2023/03/19 08:27:29;;;;;;;68.43;11.25;;;12.70;99.90;;;;;;5022644;28;20544;-83
2023/03/19 08:30:50;;;;;;;66.95;8.88;;;12.90;99.90;;;;;;5022892;28;20196;-83
2023/03/19 08:34:04;;;;;;;66.00;7.38;;;13.10;99.90;;;;;;4999989;28;20677;-83
2023/03/19 08:37:00;;;;;;;67.03;6.95;;;13.20;99.90;;;;;;5031400;28;20660;-83
2023/03/19 08:39:57;;;;;;;68.35;7.22;;;13.20;99.90;;;;;;5021882;28;20550;-83
2023/03/19 08:42:29;;;;;;;66.40;6.38;;;13.30;99.90;;;;;;5015467;28;20198;-84
2023/03/19 08:44:57;;;;;;;66.65;7.40;;;13.30;99.90;;;;;;5037464;28;20176;-83
2023/03/19 08:47:25;;;;;;;67.47;7.55;;;13.40;99.90;;;;;;5020217;28;20197;-83
2023/03/19 08:49:56;;;;;;;68.40;9.60;;;13.50;99.90;;;;;;5022830;28;20525;-84
2023/03/19 08:52:33;;;;;;;66.60;7.80;;;13.40;99.90;;;;;;5021478;28;20185;-83
2023/03/19 08:55:17;;;;;;;67.65;10.25;;;13.40;99.90;;;;;;5023356;28;20177;-84
2023/03/19 08:58:05;;;;;;;68.22;10.52;;;13.30;99.90;;;;;;5022468;28;20173;-84
2023/03/19 09:00:44;;;;;;;67.07;7.93;;;13.20;99.90;;;;;;5022090;28;20150;-83
2023/03/19 09:03:32;;;;;;;67.70;8.85;;;13.40;99.90;;;;;;5022042;28;20182;-83
2023/03/19 09:06:02;;;;;;;65.72;6.93;;;13.50;99.90;;;;;;5020972;28;20158;-84
2023/03/19 09:08:43;;;;;;;66.25;6.93;;;13.60;99.90;;;;;;5019641;28;20185;-83
2023/03/19 09:11:18;;;;;;;70.22;8.60;;;13.70;99.90;;;;;;5021103;28;20166;-84
2023/03/19 09:14:16;;;;;;;;;;;;;;;;;;;;;
2023/03/19 09:17:12;;;;;;;69.32;9.25;;;13.90;97.60;;;;;;5021043;28;20492;-84
2023/03/19 09:23:48;;;;;;;68.45;13.00;;;13.70;99.90;;;;;;5009626;28;20193;-83
2023/03/19 09:30:35;;;;;;;67.38;11.18;;;14.00;94.00;;;;;;4979751;28;20260;-83
2023/03/19 09:33:15;;;;;;;68.00;11.77;;;13.80;96.50;;;;;;5019675;28;20276;-83
2023/03/19 09:36:04;;;;;;;68.17;13.20;;;13.70;98.30;;;;;;5020291;28;20776;-84
2023/03/19 09:38:52;;;;;;;70.28;12.82;;;13.80;95.20;;;;;;5008735;28;20497;-83
2023/03/19 09:42:14;;;;;;;68.17;14.07;;;13.70;96.50;;;;;;5036830;28;20165;-83
2023/03/19 09:45:16;;;;;;;67.73;12.97;;;13.90;97.60;;;;;;4940930;29;20841;-84
2023/03/19 09:47:50;;;;;;;67.70;13.20;;;13.80;96.00;;;;;;4941387;29;20479;-84
2023/03/19 09:50:25;;;;;;;69.27;15.50;;;13.70;96.70;;;;;;5006480;28;20420;-83
2023/03/19 09:53:41;;;;;;;68.50;13.87;;;13.80;97.90;;;;;;5019515;28;20428;-83
2023/03/19 09:56:18;;;;;;;68.80;14.27;;;13.90;94.50;;;;;;5020291;28;20381;-83
2023/03/19 09:58:49;;;;;;;67.70;12.50;;;13.80;93.70;;;;;;5035472;28;20412;-83
2023/03/19 10:02:13;;;;;;;67.70;12.53;;;14.00;93.80;;;;;;5019462;28;20420;-83
2023/03/19 10:05:04;;;;;;;67.37;12.37;;;14.00;94.10;;;;;;4983576;28;20435;-83
2023/03/19 10:07:58;;;;;;;66.77;11.57;;;14.20;94.20;;;;;;5034666;28;20531;-83
2023/03/19 10:11:16;;;;;;;66.80;10.90;;;14.30;85.10;;;;;;5020298;28;20754;-83
2023/03/19 10:14:19;;;;;;;67.40;9.20;;;14.40;89.60;;;;;;5019950;28;20429;-84
2023/03/19 10:17:05;;;;;;;67.50;8.10;;;14.40;78.80;;;;;;5019948;28;20492;-83
2023/03/19 10:19:54;;;;;;;66.77;9.03;;;14.40;82.90;;;;;;5019956;28;20519;-83
2023/03/19 10:22:47;;;;;;;67.10;10.97;;;14.30;83.30;;;;;;5020955;28;20479;-83
2023/03/19 10:25:36;;;;;;;67.00;9.47;;;14.10;85.20;;;;;;5020408;28;20380;-84
2023/03/19 10:28:20;;;;;;;65.40;8.27;;;14.10;88.80;;;;;;5020558;28;20428;-83
2023/03/19 10:31:15;;;;;;;68.60;10.32;;;14.30;90.10;;;;;;5019504;28;20408;-84
2023/03/19 10:34:12;;;;;;;66.50;8.57;;;14.30;86.00;;;;;;5019741;28;20193;-83
2023/03/19 10:36:47;;;;;;;67.40;7.87;;;14.40;89.20;;;;;;5018787;28;20405;-83
2023/03/19 10:39:32;;;;;;;65.63;6.33;;;14.70;85.80;;;;;;5035643;28;20912;-83
2023/03/19 10:42:33;;;;;;;65.57;6.07;;;14.70;71.90;;;;;;5020358;28;20841;-83
2023/03/19 10:45:20;;;;;;;65.30;6.10;;;14.70;76.40;;;;;;5020066;28;20385;-83
2023/03/19 10:48:04;;;;;;;65.90;5.93;;;14.70;71.00;;;;;;5018462;28;20441;-83
2023/03/19 10:50:43;;;;;;;66.47;6.83;;;14.50;73.00;;;;;;5019502;28;20459;-84
2023/03/19 10:53:12;;;;;;;65.37;6.17;;;14.50;74.90;;;;;;5020533;28;20498;-83
2023/03/19 10:56:19;;;;;;;66.10;8.53;;;14.50;80.50;;;;;;5020052;28;20423;-83
2023/03/19 10:59:24;;;;;;;66.60;6.50;;;14.60;77.10;;;;;;5035856;28;20413;-83
2023/03/19 11:02:18;;;;;;;66.50;6.27;;;14.90;70.90;;;;;;5019419;28;20416;-83
2023/03/19 11:04:45;;;;;;;64.90;5.20;;;14.90;65.80;;;;;;5019823;28;20428;-83
2023/03/19 11:07:31;;;;;;;65.87;5.97;;;14.90;61.00;;;;;;5019542;28;20440;-83
2023/03/19 11:10:20;;;;;;;65.33;5.47;;;14.70;67.40;;;;;;5019585;28;20434;-83
2023/03/19 11:13:19;;;;;;;66.37;7.00;;;14.80;73.20;;;;;;5034703;28;20515;-83
2023/03/19 11:15:59;;;;;;;66.03;6.57;;;15.00;74.30;;;;;;5018544;28;20782;-83
2023/03/19 11:18:51;;;;;;;65.57;6.30;;;15.20;66.90;;;;;;5018482;28;20496;-83
2023/03/19 11:21:32;;;;;;;65.77;6.57;;;15.20;70.30;;;;;;5020671;28;20396;-83
2023/03/19 11:24:28;;;;;;;69.43;6.20;;;15.30;76.30;;;;;;5023046;28;20435;-83
2023/03/19 11:27:05;;;;;;;68.37;6.37;;;15.30;69.20;;;;;;4925030;29;20440;-84
2023/03/19 11:29:57;;;;;;;65.97;5.20;;;15.30;70.20;;;;;;5021135;28;20382;-84
2023/03/19 11:32:58;;;;;;;65.87;6.97;;;15.40;81.40;;;;;;5006721;28;20789;-83
2023/03/19 11:36:21;;;;;;;67.67;6.20;;;15.40;70.40;;;;;;5020926;28;20765;-83
2023/03/19 11:38:59;;;;;;;67.60;6.40;;;15.30;75.60;;;;;;5021254;28;20547;-84
2023/03/19 11:41:49;;;;;;;68.10;6.07;;;15.40;78.00;;;;;;5022671;28;20377;-84
2023/03/19 11:45:03;;;;;;;65.23;5.90;;;15.30;79.10;;;;;;5093095;23;20450;-86
2023/03/19 11:48:08;;;;;;;68.10;8.67;;;15.30;77.20;;;;;;4960137;28;20451;-85
2023/03/19 11:50:52;;;;;;;67.07;6.67;;;15.50;88.20;;;;;;5042576;28;20434;-86
2023/03/19 11:53:33;;;;;;;66.90;6.47;;;15.70;73.30;;;;;;5045339;28;20502;-85
2023/03/19 11:56:38;;;;;;;66.27;6.30;;;15.70;73.20;;;;;;5057831;28;20403;-86
2023/03/19 11:59:46;;;;;;;67.40;6.40;;;16.00;67.30;;;;;;5058084;28;20767;-86
2023/03/19 12:02:42;;;;;;;65.47;5.00;;;16.60;50.20;;;;;;5019611;28;20439;-85
2023/03/19 12:05:19;;;;;;;66.17;5.10;;;16.60;36.00;;;;;;5058225;28;20407;-86
2023/03/19 12:07:45;;;;;;;67.07;5.27;;;16.10;45.30;;;;;;5060978;28;20514;-86
2023/03/19 12:10:47;;;;;;;66.97;5.67;;;16.00;56.40;;;;;;5054403;28;20513;-85
2023/03/19 12:13:50;;;;;;;66.60;4.73;;;16.10;50.40;;;;;;5060381;28;20233;-85
2023/03/19 12:16:49;;;;;;;68.50;7.37;;;15.60;57.00;;;;;;5059651;28;20404;-85
2023/03/19 12:19:42;;;;;;;66.90;6.50;;;15.40;71.10;;;;;;5062502;28;20377;-86
2023/03/19 12:22:46;;;;;;;66.77;6.47;;;15.10;82.10;;;;;;5062050;28;20419;-86
2023/03/19 12:25:21;;;;;;;66.17;5.70;;;14.90;91.70;;;;;;5061879;28;20372;-86
2023/03/19 12:27:55;;;;;;;67.40;7.73;;;14.80;94.90;;;;;;5059337;28;21034;-86
2023/03/19 12:30:43;;;;;;;65.67;6.03;;;14.90;96.00;;;;;;5054994;28;20406;-85
2023/03/19 12:33:12;;;;;;;68.17;6.53;;;15.10;93.80;;;;;;5059417;28;20435;-86
2023/03/19 12:35:40;;;;;;;67.53;6.20;;;15.10;93.00;;;;;;5060802;28;20404;-85
2023/03/19 12:38:36;;;;;;;66.00;6.20;;;15.30;91.30;;;;;;5053166;28;20433;-85
2023/03/19 12:41:05;;;;;;;66.40;6.87;;;15.30;90.80;;;;;;5060284;28;20894;-85
2023/03/19 12:43:41;;;;;;;66.40;6.10;;;15.40;79.90;;;;;;5059725;28;20485;-86
2023/03/19 12:46:13;;;;;;;65.63;5.37;;;15.50;80.80;;;;;;5059393;28;20426;-86
2023/03/19 12:48:50;;;;;;;65.40;5.93;;;15.50;74.90;;;;;;5056222;28;20451;-86
2023/03/19 12:51:20;;;;;;;65.37;5.07;;;15.40;64.30;;;;;;5060311;28;20762;-85
2023/03/19 12:54:26;;;;;;;68.30;5.93;;;15.30;60.50;;;;;;5059578;28;20760;-86
2023/03/19 12:57:01;;;;;;;64.40;5.50;;;15.20;59.80;;;;;;5018495;28;20420;-86
2023/03/19 13:00:01;;;;;;;66.20;7.10;;;15.20;64.40;;;;;;5067018;28;20410;-86
2023/03/19 13:02:35;;;;;;;66.47;5.90;;;15.20;65.30;;;;;;5060934;28;20415;-85
2023/03/19 13:05:25;;;;;;;65.47;5.60;;;15.30;73.10;;;;;;5051593;28;20398;-86
2023/03/19 13:08:15;;;;;;;66.27;5.90;;;15.40;72.90;;;;;;5049756;28;20457;-85
2023/03/19 13:10:42;;;;;;;66.33;6.40;;;15.50;73.10;;;;;;5060432;28;20467;-85
2023/03/19 13:13:16;;;;;;;66.27;5.97;;;15.30;78.60;;;;;;5061830;28;20426;-85
2023/03/19 13:15:47;;;;;;;64.67;5.20;;;15.40;85.00;;;;;;5063262;28;20408;-86
2023/03/19 13:18:15;;;;;;;72.37;7.17;;;15.30;96.60;;;;;;5062691;28;20380;-86
2023/03/19 13:21:03;;;;;;;67.20;10.40;;;15.20;99.90;;;;;;5060281;28;20407;-86
2023/03/19 13:23:32;;;;;;;66.90;8.97;;;15.00;99.90;;;;;;5061901;28;20429;-86
2023/03/19 13:26:00;;;;;;;67.37;10.63;;;14.90;99.90;;;;;;5062459;28;20403;-86
2023/03/19 13:28:29;;;;;;;69.00;10.90;;;14.90;99.90;;;;;;5057755;28;20443;-86
2023/03/19 13:30:59;;;;;;;67.50;11.20;;;14.80;99.90;;;;;;5062539;28;20494;-86